UHHH/KHV METAR and TAF weather

Enter ICAO airport designator
Station Type Date Time Source
UHHH METAR 2019/10/23 02:00 UTC NOAA

UHHH 230200Z 28006MPS CAVOK 08/M08 Q1023 R23L/090060 NOSIG RMK QFE760/1014


Station Type Date Time Source
UHHH Decoded METAR 2019/10/23 02:00 UTC NOAA

Habarovsk, Russia (UHHH) 48-31N 135-10E 76M
Oct 22, 2019 - 10:00 PM EDT / 2019.10.23 0200 UTC
Wind: from the W (280 degrees) at 13 MPH (12 KT):0
Visibility: greater than 7 mile(s):0
Temperature: 46 F (8 C)
Dew Point: 17 F (-8 C)
Relative Humidity: 31%
Pressure (altimeter): 30.21 in. Hg (1023 hPa)
ob: UHHH 230200Z 28006MPS CAVOK 08/M08 Q1023 R23L/090060 NOSIG RMK QFE760/1014
cycle: 2

Station Type Date Time Source
UHHH TAF 2019/10/23 03:21 UTC NOAA

TAF TAF UHHH 230145Z 2303/2409 27008MPS CAVOK
TEMPO 2304/2315 32003MPS
BECMG 2315/2316 08005MPS

Example: see airport list